Estación Temperatura (°C) Hum
rel
(%)
Precip
(mm)
Viento (km/h) Actual.
Act Mín Máx Act Dir Máx
Vega Baja del Segura
Albatera 8,5 4,6 15,8 67 0,0 0 N 19 2021-01-19 22:50:00
Almoradí Los Gomares 6,6 5,6 16,4 97 0,0 0 S 18 2021-01-19 23:00:00
Benejúzar 7,3 5,5 16,3 94 0,0 0 ONO 20 2021-01-19 23:00:00
Bigastro La Pedrera 7,1 5,6 16,6 93 0,0 0 ONO 18 2021-01-19 23:00:00
Bigastro Lo Chusco 8,8 6,3 15,4 91 0,0 5 SSO 33 2021-01-19 23:00:00
Callosa de Segura 9,2 6,7 16,1 78 0,0 0 N 16 2021-01-19 23:00:00
Cox El Jasminao 8,2 5,8 16,4 89 0,0 0 N 15 2021-01-19 22:50:00
Cox Centro 8,5 6,2 15,6 85 0,0 0 N 18 2021-01-19 22:50:00
Guardamar del Segura Centro 9,5 6,2 13,8 88 0,3 0 O 18 2021-01-19 23:00:00
Jacarilla El Copo 7,2 5,6 14,9 92 0,0 2 ONO 21 2021-01-19 22:50:00
Jacarilla Centro 7,8 6,2 14,9 90 0,0 2 SO 19 2021-01-19 22:50:00
Orihuela Centro 6,8 5,6 16,9 96 0,0 0 NNO 22 2021-01-19 23:00:00
Orihuela San Bartolomé El Cabezol 10,5 6,2 15,8 89 0,0 0 SSO 15 2021-01-19 21:00:00
Orihuela San Bartolomé Centro 6,8 5,6 16,9 96 0,0 0 NNO 22 2021-01-19 23:00:00
Orihuela La Campaneta 7,5 5,6 16,3 91 0,0 0 N 18 2021-01-19 22:50:00
Orihuela R. de Bonanza 8,3 6,5 14,8 93 0,0 0 O 18 2021-01-19 23:05:00
Orihuela Playa Flamenca 10,0 7,1 13,3 87 0,0 0 N 21 2021-01-19 22:50:00
Orihuela Las Norias 7,2 6,4 16,1 51 0,0 4 ESE 20 2021-01-19 23:00:00
Orihuela Lo Capitán 6,6 5,8 15,3 97 0,0 0 SSO 18 2021-01-19 23:00:00
Orihuela Arneva 7,5 6,0 15,9 95 0,0 2 SSE 20 2021-01-19 23:00:00
Orihuela CC La Zenia 9,7 6,9 14,3 90 0,3 0 OSO 16 2021-01-19 22:50:00
Orihuela Dehesa de Pinohermoso 8,3 5,9 15,3 91 0,0 0 N 18 2021-01-19 22:50:00
Rafal 8,2 6,1 15,9 91 0,0 0 N 21 2021-01-19 23:00:00
Redován 8,5 6,2 16,2 90 0,0 0 NE 10 2021-01-19 23:00:00
Rojales Centro 7,3 6,5 18,6 93 0,0 0 NE 14 2021-01-19 23:00:00
Rojales Ciudad Quesada 9,5 6,5 15,3 91 0,0 0 SO 19 2021-01-19 23:00:00
San Fulgencio Urb. La Marina 10,0 5,8 14,8 89 0,3 0 N 24 2021-01-19 22:50:00
San Fulgencio Centro 8,5 5,8 14,8 93 0,0 0 N 21 2021-01-19 22:50:00
San Miguel de Salinas 8,4 6,4 14,3 89 0,0 2 O 21 2021-01-19 23:01:00
Pilar de la Horadada Pinar de Campoverde 9,1 6,2 14,9 94 0,4 2 N 18 2021-01-19 23:10:00
Pilar de la Horadada Lo Monte 8,1 6,0 14,3 97 0,0 4 ONO 17 2021-01-19 23:00:00
Zonas Adyacentes
Abanilla 8,7 4,6 16,2 92 0,0 0 N 17 2021-01-19 23:10:00
Santomera Centro 8,1 5,4 16,3 90 0,0 0 N 16 2021-01-19 23:10:00
Santomera La Almazara 5,8 3,7 16,3 92 0,0 0 E 13 2021-01-19 23:08:00
Murcia Santo Ángel 7,8 6,2 18,1 93 0,0 1 OSO 24 2021-01-19 23:10:00
Murcia Cañadas de San Pedro 7,4 5,6 16,1 93 0,2 0 O 24 2021-01-19 23:04:00
Molina de Segura La Espada 8,3 3,7 16,1 69 0,0 0 S 31 2021-01-19 23:03:00
San Javier 7,1 5,3 14,8 93 0,0 4 ONO 15 2021-01-19 23:00:00
San Pedro del Pinatar 9,1 5,9 13,3 76 0,0 6 ONO 23 2021-01-20 00:20:00
Granada La Alhambra 6,7 1,8 14,7 44 0,0 3 NE 8 2021-01-19 23:00:00